Time;durP1;ratioP1;P1;durP2;ratioP2;P2;SDS_P1;SDS_P2;PMS_P1;PMS_P2;Temp;Humidity;BMP_temperature;BMP_pressure;BME280_temperature;BME280_humidity;BME280_pressure;Samples;Min_cycle;Max_cycle;Signal;HPM_P1;HPM_P2
2021/03/13 00:01:26;;;;;;;2.00;1.50;;;;;;;;;;5100455;28;20452;-73
2021/03/13 00:03:53;;;;;;;3.37;1.50;;;;;;;;;;5098060;28;20487;-74
2021/03/13 00:06:23;;;;;;;2.77;1.33;;;;;;;;;;5097138;28;20480;-74
2021/03/13 00:08:51;;;;;;;3.00;1.60;;;;;;;;;;5107807;28;20449;-75
2021/03/13 00:11:18;;;;;;;5.40;1.80;;;;;;;;;;5097661;28;20462;-74
2021/03/13 00:13:53;;;;;;;2.40;1.43;;;;;;;;;;5105263;28;20480;-74
2021/03/13 00:16:24;;;;;;;5.23;1.40;;;;;;;;;;5101745;28;20731;-75
2021/03/13 00:18:54;;;;;;;3.17;1.37;;;;;;;;;;5108495;27;20456;-74
2021/03/13 00:21:22;;;;;;;3.53;1.63;;;;;;;;;;5099127;28;20464;-74
2021/03/13 00:23:49;;;;;;;4.17;1.43;;;;;;;;;;5098528;28;20482;-74
2021/03/13 00:26:19;;;;;;;7.37;1.33;;;;;;;;;;5097982;28;20869;-75
2021/03/13 00:28:46;;;;;;;2.13;1.40;;;;;;;;;;5105399;28;20456;-74
2021/03/13 00:31:13;;;;;;;3.30;1.60;;;;;;;;;;5119542;28;20463;-74
2021/03/13 00:33:42;;;;;;;3.20;1.37;;;;;;;;;;5118408;28;20462;-74
2021/03/13 00:36:11;;;;;;;3.23;1.17;;;;;;;;;;5119118;27;20468;-74
2021/03/13 00:38:38;;;;;;;2.50;1.83;;;;;;;;;;5111174;27;20466;-74
2021/03/13 00:41:05;;;;;;;1.57;0.80;;;;;;;;;;5098769;28;20460;-74
2021/03/13 00:43:33;;;;;;;1.53;1.17;;;;;;;;;;5098601;28;20463;-73
2021/03/13 00:46:00;;;;;;;3.30;1.77;;;;;;;;;;5097015;28;20915;-75
2021/03/13 00:48:27;;;;;;;2.20;1.43;;;;;;;;;;5101684;28;20455;-73
2021/03/13 00:50:55;;;;;;;3.07;1.97;;;;;;;;;;5118489;28;20463;-73
2021/03/13 00:53:23;;;;;;;7.40;2.10;;;;;;;;;;5117480;27;20935;-74
2021/03/13 00:55:51;;;;;;;2.80;1.80;;;;;;;;;;5118005;28;20469;-73
2021/03/13 00:58:18;;;;;;;4.23;1.73;;;;;;;;;;5113722;28;21004;-73
2021/03/13 01:00:45;;;;;;;2.27;1.60;;;;;;;;;;5097424;28;20479;-73
2021/03/13 01:03:12;;;;;;;5.33;2.50;;;;;;;;;;5099464;28;20454;-73
2021/03/13 01:05:40;;;;;;;3.50;2.10;;;;;;;;;;5097185;28;20484;-73
2021/03/13 01:08:12;;;;;;;1.87;1.43;;;;;;;;;;5102107;28;20549;-73
2021/03/13 01:10:43;;;;;;;2.73;1.50;;;;;;;;;;5112305;28;20469;-73
2021/03/13 01:13:10;;;;;;;3.40;1.40;;;;;;;;;;5117374;28;20521;-73
2021/03/13 01:15:37;;;;;;;1.50;1.20;;;;;;;;;;5119848;28;20569;-72
2021/03/13 01:18:05;;;;;;;4.70;1.10;;;;;;;;;;5117262;28;20455;-73
2021/03/13 01:20:32;;;;;;;2.50;1.20;;;;;;;;;;5118165;28;20451;-73
2021/03/13 01:23:00;;;;;;;2.23;1.10;;;;;;;;;;5118324;28;20460;-73
2021/03/13 01:25:27;;;;;;;1.80;1.07;;;;;;;;;;5117591;28;20557;-73
2021/03/13 01:27:55;;;;;;;1.73;1.00;;;;;;;;;;5114292;28;20479;-73
2021/03/13 01:30:23;;;;;;;2.63;1.20;;;;;;;;;;5097996;28;20725;-73
2021/03/13 01:32:51;;;;;;;1.83;0.97;;;;;;;;;;5097076;28;20463;-72
2021/03/13 01:35:18;;;;;;;2.17;1.20;;;;;;;;;;5096932;28;20526;-72
2021/03/13 01:37:46;;;;;;;3.77;1.23;;;;;;;;;;5098268;28;20471;-72
2021/03/13 01:40:15;;;;;;;6.03;2.07;;;;;;;;;;5117306;28;20459;-72
2021/03/13 01:42:42;;;;;;;1.87;0.90;;;;;;;;;;5117714;28;20562;-72
2021/03/13 01:45:11;;;;;;;2.43;1.20;;;;;;;;;;5117501;28;20493;-73
2021/03/13 01:47:39;;;;;;;1.20;0.60;;;;;;;;;;5116960;28;20470;-73
2021/03/13 01:50:08;;;;;;;3.43;1.07;;;;;;;;;;5097554;28;20445;-74
2021/03/13 01:52:35;;;;;;;3.03;1.37;;;;;;;;;;5097261;28;20469;-74
2021/03/13 01:55:02;;;;;;;2.20;0.87;;;;;;;;;;5097558;28;20471;-73
2021/03/13 01:57:30;;;;;;;1.70;1.23;;;;;;;;;;5096313;28;20452;-74
2021/03/13 01:59:57;;;;;;;2.43;1.50;;;;;;;;;;5115594;28;20839;-73
2021/03/13 02:02:55;;;;;;;1.90;0.93;;;;;;;;;;5117840;28;20460;-74
2021/03/13 02:05:24;;;;;;;2.60;1.37;;;;;;;;;;5112324;28;20524;-74
2021/03/13 02:07:57;;;;;;;4.73;0.90;;;;;;;;;;5106947;28;20485;-74
2021/03/13 02:10:32;;;;;;;2.47;1.30;;;;;;;;;;5119053;27;20460;-75
2021/03/13 02:13:06;;;;;;;2.93;1.23;;;;;;;;;;5121126;27;20453;-74
2021/03/13 02:15:37;;;;;;;2.20;1.40;;;;;;;;;;5121366;27;20455;-74
2021/03/13 02:18:09;;;;;;;3.60;1.63;;;;;;;;;;5109123;28;20457;-74
2021/03/13 02:20:55;;;;;;;4.60;1.13;;;;;;;;;;5100053;28;20449;-74
2021/03/13 02:23:24;;;;;;;2.00;1.40;;;;;;;;;;5107649;28;20846;-74
2021/03/13 02:26:01;;;;;;;2.30;1.60;;;;;;;;;;5120559;27;20487;-74
2021/03/13 02:28:32;;;;;;;3.70;1.80;;;;;;;;;;5119949;27;20473;-74
2021/03/13 02:31:03;;;;;;;3.03;1.70;;;;;;;;;;5121822;27;20455;-74
2021/03/13 02:33:33;;;;;;;3.37;1.60;;;;;;;;;;5115524;27;20746;-74
2021/03/13 02:36:01;;;;;;;1.77;1.57;;;;;;;;;;5100194;28;20456;-73
2021/03/13 02:38:29;;;;;;;5.43;2.10;;;;;;;;;;5100212;28;20461;-73
2021/03/13 02:40:58;;;;;;;7.63;2.10;;;;;;;;;;5099549;28;20475;-74
2021/03/13 02:43:26;;;;;;;6.00;1.97;;;;;;;;;;5103131;28;20463;-73
2021/03/13 02:45:56;;;;;;;6.00;2.17;;;;;;;;;;5120339;27;20492;-73
2021/03/13 02:48:25;;;;;;;5.13;1.90;;;;;;;;;;5107657;27;20463;-73
2021/03/13 02:50:53;;;;;;;7.10;1.93;;;;;;;;;;5100454;28;20751;-73
2021/03/13 02:53:21;;;;;;;2.83;1.53;;;;;;;;;;5112079;27;20488;-73
2021/03/13 02:55:50;;;;;;;5.93;2.70;;;;;;;;;;5120089;27;20761;-73
2021/03/13 02:58:19;;;;;;;5.33;2.13;;;;;;;;;;5099926;28;20880;-73
2021/03/13 03:00:47;;;;;;;3.77;2.00;;;;;;;;;;5120506;27;20533;-73
2021/03/13 03:03:16;;;;;;;6.33;2.63;;;;;;;;;;5119578;28;20457;-73
2021/03/13 03:05:45;;;;;;;3.80;2.00;;;;;;;;;;5119634;27;20773;-73
2021/03/13 03:08:15;;;;;;;5.87;2.53;;;;;;;;;;5119180;27;20449;-73
2021/03/13 03:10:45;;;;;;;4.80;2.70;;;;;;;;;;5115203;27;20495;-73
2021/03/13 03:13:15;;;;;;;3.10;2.40;;;;;;;;;;5099503;28;20533;-73
2021/03/13 03:15:44;;;;;;;7.10;2.93;;;;;;;;;;5105892;27;20454;-74
2021/03/13 03:18:12;;;;;;;5.13;2.20;;;;;;;;;;5119048;27;21144;-73
2021/03/13 03:20:40;;;;;;;6.07;2.13;;;;;;;;;;5120952;27;20459;-73
2021/03/13 03:23:09;;;;;;;5.60;2.23;;;;;;;;;;5119769;27;20482;-73
2021/03/13 03:25:36;;;;;;;8.23;2.53;;;;;;;;;;5120572;27;20493;-73
2021/03/13 03:28:13;;;;;;;5.40;2.47;;;;;;;;;;5111710;27;20449;-73
2021/03/13 03:30:47;;;;;;;13.77;2.70;;;;;;;;;;5098257;28;20539;-73
2021/03/13 03:33:14;;;;;;;6.03;2.63;;;;;;;;;;5100438;28;20452;-73
2021/03/13 03:35:42;;;;;;;4.37;2.00;;;;;;;;;;5100036;28;20491;-73
2021/03/13 03:38:15;;;;;;;8.97;2.33;;;;;;;;;;5098808;28;20947;-73
2021/03/13 03:40:43;;;;;;;8.73;3.13;;;;;;;;;;5099447;28;20470;-73
2021/03/13 03:46:04;;;;;;;4.60;2.90;;;;;;;;;;5095676;28;20641;-73
2021/03/13 03:48:31;;;;;;;5.40;3.07;;;;;;;;;;5098052;28;20454;-73
2021/03/13 03:50:58;;;;;;;5.70;3.77;;;;;;;;;;5100191;28;20466;-73
2021/03/13 03:53:29;;;;;;;4.97;2.90;;;;;;;;;;5098455;28;20454;-72
2021/03/13 03:56:00;;;;;;;4.97;3.17;;;;;;;;;;5099168;28;20575;-73
2021/03/13 03:58:29;;;;;;;6.50;4.10;;;;;;;;;;5098822;28;20468;-73
2021/03/13 04:01:02;;;;;;;6.30;4.13;;;;;;;;;;5098208;28;20460;-73
2021/03/13 04:03:41;;;;;;;9.73;5.03;;;;;;;;;;5101582;28;20453;-73
2021/03/13 04:06:09;;;;;;;6.93;4.30;;;;;;;;;;5118432;28;20864;-73
2021/03/13 04:08:39;;;;;;;7.10;4.30;;;;;;;;;;5118605;27;20863;-73
2021/03/13 04:11:06;;;;;;;6.80;4.87;;;;;;;;;;5119679;28;20974;-73
2021/03/13 04:13:34;;;;;;;8.87;4.60;;;;;;;;;;5119001;28;20452;-73
2021/03/13 04:16:03;;;;;;;8.43;5.37;;;;;;;;;;5119286;27;20463;-72
2021/03/13 04:18:30;;;;;;;11.87;7.37;;;;;;;;;;5118574;27;20875;-72
2021/03/13 04:20:58;;;;;;;12.77;7.13;;;;;;;;;;5116898;27;20447;-72
2021/03/13 04:23:26;;;;;;;13.73;7.37;;;;;;;;;;5117245;27;20456;-72
2021/03/13 04:25:55;;;;;;;11.23;6.53;;;;;;;;;;5119145;28;20936;-72
2021/03/13 04:28:25;;;;;;;9.17;6.67;;;;;;;;;;5118134;27;20839;-72
2021/03/13 04:30:53;;;;;;;10.90;6.10;;;;;;;;;;5118882;27;20465;-72
2021/03/13 04:33:20;;;;;;;10.30;7.03;;;;;;;;;;5118076;27;20864;-72
2021/03/13 04:35:49;;;;;;;10.97;6.73;;;;;;;;;;5118925;27;20468;-73
2021/03/13 04:38:17;;;;;;;10.77;6.40;;;;;;;;;;5115983;28;20804;-73
2021/03/13 04:40:48;;;;;;;11.57;6.43;;;;;;;;;;5118552;28;20921;-73
2021/03/13 04:43:17;;;;;;;13.03;6.07;;;;;;;;;;5119492;27;20448;-74
2021/03/13 04:45:45;;;;;;;13.87;8.80;;;;;;;;;;5118636;27;20758;-73
2021/03/13 04:48:13;;;;;;;11.90;6.83;;;;;;;;;;5116379;28;20455;-73
2021/03/13 04:50:47;;;;;;;14.47;7.47;;;;;;;;;;5118199;27;20869;-73
2021/03/13 04:53:14;;;;;;;13.50;7.20;;;;;;;;;;5117558;27;20484;-73
2021/03/13 04:55:41;;;;;;;11.13;6.50;;;;;;;;;;5117806;28;20467;-73
2021/03/13 04:58:09;;;;;;;12.03;7.60;;;;;;;;;;5116967;28;20514;-73
2021/03/13 05:00:38;;;;;;;11.80;6.80;;;;;;;;;;5117461;28;20452;-73
2021/03/13 05:03:05;;;;;;;12.20;7.60;;;;;;;;;;5117317;28;20463;-73
2021/03/13 05:05:33;;;;;;;14.07;7.53;;;;;;;;;;5116924;28;20500;-73
2021/03/13 05:08:00;;;;;;;16.27;9.33;;;;;;;;;;5117060;28;20451;-73
2021/03/13 05:10:29;;;;;;;15.60;8.40;;;;;;;;;;5117317;28;20941;-73
2021/03/13 05:12:56;;;;;;;14.83;8.20;;;;;;;;;;5116868;28;20521;-72
2021/03/13 05:15:24;;;;;;;14.20;7.97;;;;;;;;;;5116542;28;20472;-72
2021/03/13 05:17:52;;;;;;;16.23;7.87;;;;;;;;;;5117272;28;20459;-72
2021/03/13 05:20:20;;;;;;;12.07;7.30;;;;;;;;;;5117008;28;20493;-73
2021/03/13 05:22:47;;;;;;;11.70;7.60;;;;;;;;;;5117255;28;20777;-72
2021/03/13 05:25:15;;;;;;;11.57;6.80;;;;;;;;;;5109373;28;20496;-73
2021/03/13 05:27:42;;;;;;;17.83;7.57;;;;;;;;;;5096866;28;20736;-73
2021/03/13 05:30:10;;;;;;;14.60;7.73;;;;;;;;;;5098962;28;20467;-73
2021/03/13 05:32:38;;;;;;;19.40;9.70;;;;;;;;;;5097161;28;20460;-73
2021/03/13 05:35:08;;;;;;;15.00;7.70;;;;;;;;;;5097023;28;20740;-72
2021/03/13 05:37:35;;;;;;;16.73;7.37;;;;;;;;;;5095822;28;20459;-72
2021/03/13 05:40:03;;;;;;;15.53;8.30;;;;;;;;;;5096179;28;20583;-73
2021/03/13 05:42:31;;;;;;;15.37;7.57;;;;;;;;;;5096469;28;20454;-72
2021/03/13 05:44:59;;;;;;;10.37;6.40;;;;;;;;;;5096875;28;20542;-72
2021/03/13 05:47:27;;;;;;;11.20;7.13;;;;;;;;;;5100493;28;20455;-73
2021/03/13 05:49:58;;;;;;;14.57;8.60;;;;;;;;;;5100071;28;20561;-73
2021/03/13 05:52:27;;;;;;;15.00;8.30;;;;;;;;;;5100587;28;20459;-72
2021/03/13 05:54:54;;;;;;;10.63;7.10;;;;;;;;;;5102766;28;20481;-73
2021/03/13 05:57:22;;;;;;;13.33;6.47;;;;;;;;;;5100368;28;20513;-72
2021/03/13 05:59:50;;;;;;;12.63;7.20;;;;;;;;;;5101303;28;20711;-73
2021/03/13 06:02:18;;;;;;;11.23;7.60;;;;;;;;;;5101873;28;20450;-73
2021/03/13 06:04:45;;;;;;;13.73;8.40;;;;;;;;;;5100179;28;20542;-73
2021/03/13 06:07:15;;;;;;;10.10;6.30;;;;;;;;;;5101794;28;20774;-73
2021/03/13 06:09:43;;;;;;;14.73;8.20;;;;;;;;;;5100108;28;20542;-73
2021/03/13 06:12:11;;;;;;;7.00;4.70;;;;;;;;;;5100743;28;20481;-73
2021/03/13 06:14:38;;;;;;;9.20;6.33;;;;;;;;;;5101176;28;21034;-73
2021/03/13 06:17:06;;;;;;;14.20;7.70;;;;;;;;;;5099722;28;20453;-73
2021/03/13 06:19:47;;;;;;;16.70;8.43;;;;;;;;;;5101333;28;20782;-73
2021/03/13 06:22:29;;;;;;;12.60;6.40;;;;;;;;;;5100742;28;20871;-73
2021/03/13 06:25:16;;;;;;;7.20;4.90;;;;;;;;;;5099744;28;20506;-73
2021/03/13 06:27:44;;;;;;;8.67;6.20;;;;;;;;;;5101236;28;20464;-73
2021/03/13 06:30:13;;;;;;;15.70;6.77;;;;;;;;;;5114726;27;21494;-73
2021/03/13 06:32:40;;;;;;;13.83;6.87;;;;;;;;;;5114909;27;21084;-73
2021/03/13 06:35:25;;;;;;;12.00;6.40;;;;;;;;;;5110349;27;21084;-73
2021/03/13 06:37:55;;;;;;;8.60;4.53;;;;;;;;;;5124254;27;20453;-73
2021/03/13 06:40:30;;;;;;;11.03;5.07;;;;;;;;;;5124930;27;20465;-74
2021/03/13 06:43:05;;;;;;;8.50;4.07;;;;;;;;;;5125859;27;20461;-74
2021/03/13 06:45:55;;;;;;;8.63;5.00;;;;;;;;;;5132135;27;20521;-74
2021/03/13 06:48:35;;;;;;;9.67;4.37;;;;;;;;;;5132148;27;20480;-73
2021/03/13 06:51:25;;;;;;;9.33;3.60;;;;;;;;;;5127745;27;20557;-74
2021/03/13 06:54:18;;;;;;;7.07;4.47;;;;;;;;;;5123993;27;20738;-74
2021/03/13 06:57:01;;;;;;;6.47;3.93;;;;;;;;;;5122224;27;20869;-74
2021/03/13 06:59:32;;;;;;;10.17;4.07;;;;;;;;;;5130399;27;20486;-74
2021/03/13 07:02:01;;;;;;;4.43;3.10;;;;;;;;;;5126784;27;20750;-74
2021/03/13 07:04:31;;;;;;;6.47;4.17;;;;;;;;;;5127186;27;20758;-74
2021/03/13 07:06:59;;;;;;;8.17;3.70;;;;;;;;;;5136984;27;20523;-74
2021/03/13 07:09:44;;;;;;;3.37;2.47;;;;;;;;;;5138608;27;20495;-74
2021/03/13 07:12:23;;;;;;;3.87;2.40;;;;;;;;;;5141621;27;20479;-74
2021/03/13 07:14:52;;;;;;;4.47;2.80;;;;;;;;;;5140848;27;20509;-74
2021/03/13 07:17:23;;;;;;;6.20;2.90;;;;;;;;;;5133240;27;20452;-74
2021/03/13 07:19:56;;;;;;;5.63;2.83;;;;;;;;;;5099307;28;20452;-75
2021/03/13 07:22:24;;;;;;;3.97;1.97;;;;;;;;;;5099471;28;20718;-72
2021/03/13 07:24:55;;;;;;;9.57;3.13;;;;;;;;;;5098787;28;20483;-75
2021/03/13 07:27:24;;;;;;;5.20;3.50;;;;;;;;;;5104391;28;20466;-74
2021/03/13 07:29:52;;;;;;;5.63;3.10;;;;;;;;;;5119396;27;20774;-75
2021/03/13 07:32:25;;;;;;;3.30;2.90;;;;;;;;;;5119200;28;20456;-74
2021/03/13 07:34:56;;;;;;;2.97;1.87;;;;;;;;;;5119025;27;20451;-74
2021/03/13 07:37:24;;;;;;;4.20;1.90;;;;;;;;;;5118269;27;20922;-75
2021/03/13 07:39:54;;;;;;;4.83;2.10;;;;;;;;;;5119125;27;20491;-74
2021/03/13 07:42:23;;;;;;;4.33;2.60;;;;;;;;;;5119301;27;20460;-74
2021/03/13 07:44:53;;;;;;;5.23;2.10;;;;;;;;;;5118078;27;20483;-74
2021/03/13 07:47:22;;;;;;;3.00;2.40;;;;;;;;;;5098268;28;20531;-74
2021/03/13 07:49:51;;;;;;;4.13;1.87;;;;;;;;;;5097922;28;20458;-74
2021/03/13 07:52:21;;;;;;;3.33;1.87;;;;;;;;;;5097944;28;20527;-74
2021/03/13 07:54:50;;;;;;;2.70;1.80;;;;;;;;;;5098999;28;20455;-74
2021/03/13 07:57:19;;;;;;;2.47;1.90;;;;;;;;;;5100999;28;20479;-74
2021/03/13 07:59:49;;;;;;;2.00;1.50;;;;;;;;;;5110870;28;20456;-74
2021/03/13 08:02:32;;;;;;;3.17;2.17;;;;;;;;;;5114410;27;20477;-74
2021/03/13 08:05:06;;;;;;;2.67;1.80;;;;;;;;;;5107821;27;20575;-74
2021/03/13 08:08:10;;;;;;;2.43;1.93;;;;;;;;;;5111153;28;20468;-74
2021/03/13 08:10:53;;;;;;;3.50;2.13;;;;;;;;;;5055063;28;20459;-74
2021/03/13 08:13:54;;;;;;;3.30;1.80;;;;;;;;;;5054569;28;20449;-74
2021/03/13 08:16:38;;;;;;;2.33;1.40;;;;;;;;;;5039528;28;20477;-74
2021/03/13 08:19:22;;;;;;;3.40;2.00;;;;;;;;;;5034974;28;20535;-74
2021/03/13 08:21:50;;;;;;;2.60;1.97;;;;;;;;;;5082653;27;20501;-74
2021/03/13 08:24:40;;;;;;;2.00;1.37;;;;;;;;;;5116998;27;20522;-74
2021/03/13 08:27:08;;;;;;;2.73;1.93;;;;;;;;;;5118659;27;20471;-74
2021/03/13 08:29:51;;;;;;;3.60;1.67;;;;;;;;;;5119236;27;20738;-74
2021/03/13 08:32:40;;;;;;;3.27;1.83;;;;;;;;;;5104061;27;21134;-74
2021/03/13 08:35:08;;;;;;;5.23;2.07;;;;;;;;;;5097777;28;20530;-74
2021/03/13 08:37:47;;;;;;;3.03;2.17;;;;;;;;;;5097900;28;20510;-74
2021/03/13 08:40:26;;;;;;;2.97;1.93;;;;;;;;;;5097289;28;20541;-74
2021/03/13 08:42:57;;;;;;;3.60;1.87;;;;;;;;;;5099218;28;20518;-75
2021/03/13 08:45:27;;;;;;;3.93;2.50;;;;;;;;;;5097768;28;20574;-74
2021/03/13 08:47:56;;;;;;;3.67;2.30;;;;;;;;;;5113420;27;20509;-74
2021/03/13 08:50:41;;;;;;;3.43;2.77;;;;;;;;;;5099696;28;20476;-74
2021/03/13 08:53:30;;;;;;;2.73;1.97;;;;;;;;;;5097503;28;20583;-74
2021/03/13 08:55:58;;;;;;;3.67;2.23;;;;;;;;;;5098295;28;20540;-74
2021/03/13 08:58:44;;;;;;;4.73;2.10;;;;;;;;;;5096488;28;20459;-74
2021/03/13 09:01:18;;;;;;;2.93;1.80;;;;;;;;;;5097053;28;21096;-74
2021/03/13 09:03:50;;;;;;;2.83;1.57;;;;;;;;;;5110454;28;20467;-74
2021/03/13 09:06:21;;;;;;;3.63;2.33;;;;;;;;;;5117982;28;20493;-74
2021/03/13 09:08:51;;;;;;;2.60;1.63;;;;;;;;;;5103090;28;20465;-74
2021/03/13 09:11:27;;;;;;;4.67;3.27;;;;;;;;;;5098366;28;20456;-74
2021/03/13 09:14:02;;;;;;;3.63;2.30;;;;;;;;;;5097382;28;20528;-74
2021/03/13 09:16:39;;;;;;;2.93;2.07;;;;;;;;;;5097862;28;20472;-73
2021/03/13 09:19:14;;;;;;;4.13;2.17;;;;;;;;;;5096868;28;20471;-73
2021/03/13 09:21:57;;;;;;;1.93;1.30;;;;;;;;;;5105708;28;20466;-73
2021/03/13 09:24:28;;;;;;;2.80;2.30;;;;;;;;;;5106638;27;20448;-73
2021/03/13 09:27:36;;;;;;;3.43;1.90;;;;;;;;;;5105541;27;20548;-74
2021/03/13 09:30:33;;;;;;;2.30;1.80;;;;;;;;;;5102433;28;20560;-73
2021/03/13 09:33:07;;;;;;;1.70;1.20;;;;;;;;;;5110830;28;20455;-74
2021/03/13 09:35:36;;;;;;;2.30;1.70;;;;;;;;;;5110725;27;20469;-73
2021/03/13 09:38:15;;;;;;;2.77;1.97;;;;;;;;;;5103716;28;20477;-72
2021/03/13 09:40:53;;;;;;;3.37;1.93;;;;;;;;;;5108983;28;20561;-74
2021/03/13 09:43:20;;;;;;;2.07;1.70;;;;;;;;;;5110371;27;20459;-74
2021/03/13 09:45:50;;;;;;;2.90;1.40;;;;;;;;;;5110169;27;20482;-75
2021/03/13 09:48:29;;;;;;;2.47;1.17;;;;;;;;;;5100399;28;20467;-73
2021/03/13 09:51:07;;;;;;;2.53;1.00;;;;;;;;;;5101457;28;20472;-74
2021/03/13 09:53:35;;;;;;;2.13;1.23;;;;;;;;;;5101654;28;20501;-75
2021/03/13 09:56:04;;;;;;;2.50;1.00;;;;;;;;;;5110765;28;20583;-74
2021/03/13 09:58:35;;;;;;;2.60;1.83;;;;;;;;;;5110364;28;20518;-74
2021/03/13 10:01:06;;;;;;;2.87;1.17;;;;;;;;;;5115605;27;20544;-74
2021/03/13 10:03:34;;;;;;;1.90;1.40;;;;;;;;;;5115128;27;20768;-74
2021/03/13 10:06:05;;;;;;;1.47;0.90;;;;;;;;;;5099244;28;20491;-73
2021/03/13 10:08:38;;;;;;;1.30;0.80;;;;;;;;;;5101768;28;20875;-74
2021/03/13 10:11:06;;;;;;;3.03;0.93;;;;;;;;;;5114507;27;20527;-74
2021/03/13 10:13:34;;;;;;;2.90;2.33;;;;;;;;;;5098958;28;20463;-74
2021/03/13 10:16:06;;;;;;;1.50;0.80;;;;;;;;;;5100065;28;20741;-74
2021/03/13 10:18:42;;;;;;;1.40;1.03;;;;;;;;;;5099860;27;20478;-74
2021/03/13 10:21:11;;;;;;;1.27;0.60;;;;;;;;;;5100834;28;20779;-73
2021/03/13 10:23:39;;;;;;;2.70;0.90;;;;;;;;;;5109141;27;20470;-74
2021/03/13 10:26:08;;;;;;;2.83;1.27;;;;;;;;;;5101688;27;20491;-73
2021/03/13 10:28:37;;;;;;;1.67;0.80;;;;;;;;;;5101289;28;20458;-74
2021/03/13 10:31:12;;;;;;;2.13;1.27;;;;;;;;;;5105374;27;20468;-73
2021/03/13 10:33:41;;;;;;;4.77;1.23;;;;;;;;;;5109460;28;20530;-73
2021/03/13 10:36:14;;;;;;;2.03;1.00;;;;;;;;;;5119871;27;20865;-74
2021/03/13 10:38:43;;;;;;;4.03;1.67;;;;;;;;;;5108574;27;20457;-73
2021/03/13 10:41:17;;;;;;;3.43;2.27;;;;;;;;;;5102377;27;20480;-74
2021/03/13 10:43:46;;;;;;;5.70;1.80;;;;;;;;;;5105443;28;20946;-73
2021/03/13 10:46:16;;;;;;;5.73;2.17;;;;;;;;;;5106408;27;20489;-73
2021/03/13 10:49:01;;;;;;;4.50;2.13;;;;;;;;;;5118720;27;20519;-73
2021/03/13 10:51:30;;;;;;;2.63;1.37;;;;;;;;;;5112524;28;20958;-73
2021/03/13 10:54:16;;;;;;;4.50;1.93;;;;;;;;;;5101587;28;20478;-74
2021/03/13 10:56:58;;;;;;;3.03;1.93;;;;;;;;;;5111696;28;20566;-73
2021/03/13 10:59:35;;;;;;;3.90;1.23;;;;;;;;;;5103964;28;20534;-73
2021/03/13 11:02:04;;;;;;;3.97;1.43;;;;;;;;;;5102092;28;20737;-73
2021/03/13 11:04:36;;;;;;;4.80;1.90;;;;;;;;;;5109357;27;20447;-73
2021/03/13 11:07:14;;;;;;;3.97;1.20;;;;;;;;;;5107704;27;20511;-74
2021/03/13 11:09:47;;;;;;;2.87;1.07;;;;;;;;;;5113254;28;20483;-73
2021/03/13 11:12:19;;;;;;;8.70;3.40;;;;;;;;;;5114202;27;20802;-73
2021/03/13 11:14:48;;;;;;;4.23;2.33;;;;;;;;;;5103462;28;20462;-73
2021/03/13 11:17:19;;;;;;;4.03;1.90;;;;;;;;;;5102760;27;20449;-72
2021/03/13 11:19:47;;;;;;;4.33;1.93;;;;;;;;;;5097928;28;20463;-74
2021/03/13 11:22:16;;;;;;;5.30;2.10;;;;;;;;;;5098080;28;20466;-74
2021/03/13 11:24:45;;;;;;;9.23;3.80;;;;;;;;;;5098488;28;20906;-73
2021/03/13 11:27:14;;;;;;;4.10;1.80;;;;;;;;;;5080617;28;20912;-74
2021/03/13 11:29:45;;;;;;;7.07;1.87;;;;;;;;;;5099172;28;20454;-72
2021/03/13 11:32:21;;;;;;;5.13;1.93;;;;;;;;;;5099127;28;20470;-73
2021/03/13 11:34:51;;;;;;;3.77;1.33;;;;;;;;;;5099788;28;20453;-73
2021/03/13 11:37:31;;;;;;;2.10;1.33;;;;;;;;;;5106021;28;20471;-72
2021/03/13 11:40:06;;;;;;;5.30;1.60;;;;;;;;;;5102007;28;20544;-74
2021/03/13 11:42:38;;;;;;;5.33;1.13;;;;;;;;;;5108989;28;20554;-73
2021/03/13 11:45:24;;;;;;;5.80;2.00;;;;;;;;;;5113939;27;20503;-73
2021/03/13 11:47:57;;;;;;;3.97;1.63;;;;;;;;;;5101714;28;20913;-73
2021/03/13 11:50:32;;;;;;;3.37;1.10;;;;;;;;;;5112377;28;20937;-73
2021/03/13 11:53:00;;;;;;;2.00;1.20;;;;;;;;;;5099661;28;20482;-74
2021/03/13 11:55:30;;;;;;;3.50;1.20;;;;;;;;;;5101923;28;20596;-72
2021/03/13 11:58:13;;;;;;;4.60;1.47;;;;;;;;;;5104991;27;20473;-73
2021/03/13 12:00:56;;;;;;;2.63;1.53;;;;;;;;;;5095980;28;20471;-74
2021/03/13 12:03:28;;;;;;;3.83;1.70;;;;;;;;;;5115057;28;20492;-74
2021/03/13 12:05:59;;;;;;;4.17;1.13;;;;;;;;;;5098258;28;20484;-74
2021/03/13 12:08:26;;;;;;;3.13;1.10;;;;;;;;;;5099070;28;20468;-73
2021/03/13 12:11:01;;;;;;;2.53;1.20;;;;;;;;;;5106854;28;20458;-72
2021/03/13 12:13:30;;;;;;;2.10;0.80;;;;;;;;;;5115778;27;20482;-74
2021/03/13 12:15:58;;;;;;;2.53;0.93;;;;;;;;;;5104898;28;20521;-73
2021/03/13 12:18:32;;;;;;;4.07;1.30;;;;;;;;;;5101384;27;20487;-73
2021/03/13 12:21:01;;;;;;;7.90;1.83;;;;;;;;;;5111838;27;20538;-73
2021/03/13 12:23:29;;;;;;;2.20;1.10;;;;;;;;;;5107618;28;20497;-71
2021/03/13 12:25:57;;;;;;;7.73;1.50;;;;;;;;;;5097591;28;20596;-73
2021/03/13 12:28:25;;;;;;;5.60;2.07;;;;;;;;;;5096887;28;20465;-73
2021/03/13 12:30:56;;;;;;;2.43;1.43;;;;;;;;;;5100155;28;20470;-72
2021/03/13 12:36:15;;;;;;;2.77;1.00;;;;;;;;;;5094282;28;20455;-73
2021/03/13 12:38:44;;;;;;;10.20;2.67;;;;;;;;;;5104232;27;20459;-73
2021/03/13 12:41:26;;;;;;;5.47;1.40;;;;;;;;;;5096624;28;20524;-72
2021/03/13 12:43:54;;;;;;;4.73;1.80;;;;;;;;;;5106666;28;20444;-72
2021/03/13 12:46:28;;;;;;;6.43;1.90;;;;;;;;;;5101202;28;20497;-73
2021/03/13 12:49:11;;;;;;;5.13;1.43;;;;;;;;;;5112486;28;20855;-74
2021/03/13 12:51:42;;;;;;;2.60;1.50;;;;;;;;;;5118470;28;20461;-73
2021/03/13 12:54:09;;;;;;;7.30;2.30;;;;;;;;;;5116427;28;20540;-74
2021/03/13 12:56:46;;;;;;;2.23;1.27;;;;;;;;;;5116826;28;20449;-74
2021/03/13 12:59:20;;;;;;;4.40;1.60;;;;;;;;;;5117385;27;20479;-74
2021/03/13 13:02:16;;;;;;;6.77;1.87;;;;;;;;;;5108895;28;20760;-74
2021/03/13 13:04:47;;;;;;;2.50;1.03;;;;;;;;;;5092528;28;20465;-74
2021/03/13 13:07:24;;;;;;;2.67;1.27;;;;;;;;;;5096780;28;20468;-74
2021/03/13 13:09:53;;;;;;;4.23;1.53;;;;;;;;;;5095886;28;20540;-73
2021/03/13 13:12:21;;;;;;;3.57;1.80;;;;;;;;;;5098433;28;20516;-74
2021/03/13 13:14:49;;;;;;;2.23;1.10;;;;;;;;;;5096933;28;20477;-73
2021/03/13 13:17:19;;;;;;;4.33;1.10;;;;;;;;;;5097635;28;20482;-74
2021/03/13 13:19:47;;;;;;;1.37;0.80;;;;;;;;;;5097551;28;20470;-73
2021/03/13 13:22:14;;;;;;;3.40;0.80;;;;;;;;;;5114460;28;20460;-73
2021/03/13 13:24:46;;;;;;;2.53;1.50;;;;;;;;;;5102447;28;20473;-73
2021/03/13 13:27:14;;;;;;;1.60;0.70;;;;;;;;;;5097227;28;20867;-73
2021/03/13 13:29:42;;;;;;;5.37;2.73;;;;;;;;;;5099178;28;20455;-73
2021/03/13 13:32:13;;;;;;;2.33;0.70;;;;;;;;;;5097791;28;20875;-73
2021/03/13 13:34:43;;;;;;;3.00;0.70;;;;;;;;;;5098440;28;20788;-73
2021/03/13 13:37:17;;;;;;;2.07;0.87;;;;;;;;;;5109056;28;20455;-73
2021/03/13 13:39:45;;;;;;;3.30;1.50;;;;;;;;;;5096709;28;20462;-72
2021/03/13 13:42:17;;;;;;;2.23;1.07;;;;;;;;;;5096125;28;20452;-73
2021/03/13 13:44:51;;;;;;;6.83;1.97;;;;;;;;;;5103390;28;20459;-73
2021/03/13 13:47:32;;;;;;;3.67;1.33;;;;;;;;;;5116817;28;20455;-73
2021/03/13 13:50:11;;;;;;;2.83;1.00;;;;;;;;;;5095941;28;20504;-73
2021/03/13 13:52:44;;;;;;;2.33;1.40;;;;;;;;;;5097482;28;20452;-73
2021/03/13 13:55:13;;;;;;;4.17;0.90;;;;;;;;;;5098637;28;20472;-72
2021/03/13 13:57:45;;;;;;;2.80;1.33;;;;;;;;;;5096532;28;20495;-72
2021/03/13 14:06:48;;;;;;;6.67;1.20;;;;;;;;;;5019628;28;20492;-73
2021/03/13 14:10:13;;;;;;;8.30;1.77;;;;;;;;;;5021711;28;20455;-73
2021/03/13 14:12:44;;;;;;;2.97;1.27;;;;;;;;;;5027658;28;20463;-73
2021/03/13 14:15:12;;;;;;;3.57;1.23;;;;;;;;;;5038708;28;20462;-73
2021/03/13 14:17:40;;;;;;;7.80;2.00;;;;;;;;;;5096510;27;20450;-73
2021/03/13 14:20:12;;;;;;;5.40;1.50;;;;;;;;;;5100749;28;20554;-72
2021/03/13 14:22:40;;;;;;;4.17;1.60;;;;;;;;;;5105098;28;20808;-73
2021/03/13 14:25:10;;;;;;;1.87;1.13;;;;;;;;;;5119437;27;20481;-73
2021/03/13 14:27:40;;;;;;;3.30;1.50;;;;;;;;;;5118912;27;20459;-72
2021/03/13 14:30:09;;;;;;;4.33;1.33;;;;;;;;;;5118782;27;20464;-72
2021/03/13 14:32:43;;;;;;;2.60;0.90;;;;;;;;;;5119244;27;20500;-72
2021/03/13 14:35:19;;;;;;;1.80;0.80;;;;;;;;;;5118803;27;20503;-73
2021/03/13 14:37:47;;;;;;;3.20;1.00;;;;;;;;;;5115408;28;20456;-72
2021/03/13 14:40:32;;;;;;;3.63;1.60;;;;;;;;;;5100097;28;20463;-71
2021/03/13 14:43:01;;;;;;;1.67;0.90;;;;;;;;;;5100209;28;20450;-72
2021/03/13 14:45:38;;;;;;;2.20;1.07;;;;;;;;;;5100763;28;20494;-71
2021/03/13 14:48:06;;;;;;;2.73;0.70;;;;;;;;;;5101843;28;20540;-73
2021/03/13 14:50:48;;;;;;;5.20;1.33;;;;;;;;;;5108674;28;20737;-73
2021/03/13 14:53:17;;;;;;;4.83;1.00;;;;;;;;;;5118503;27;20453;-71
2021/03/13 14:55:54;;;;;;;3.20;1.00;;;;;;;;;;5119222;27;20470;-71
2021/03/13 14:58:30;;;;;;;1.77;0.60;;;;;;;;;;5119075;27;20880;-72
2021/03/13 15:00:57;;;;;;;2.53;0.70;;;;;;;;;;5088071;28;20766;-73
2021/03/13 15:03:31;;;;;;;3.03;1.00;;;;;;;;;;5118701;27;20470;-74
2021/03/13 15:06:11;;;;;;;5.93;1.60;;;;;;;;;;5109878;28;20498;-74
2021/03/13 15:08:40;;;;;;;3.10;1.53;;;;;;;;;;5117991;27;20551;-73
2021/03/13 15:11:07;;;;;;;2.17;1.30;;;;;;;;;;5098498;28;20464;-74
2021/03/13 15:13:37;;;;;;;3.90;2.00;;;;;;;;;;5098683;28;20452;-73
2021/03/13 15:16:05;;;;;;;6.10;1.27;;;;;;;;;;5097231;28;20467;-74
2021/03/13 15:18:36;;;;;;;4.60;1.30;;;;;;;;;;5097080;28;20464;-74
2021/03/13 15:21:18;;;;;;;10.33;1.83;;;;;;;;;;5098057;28;20517;-74